Terminal Aerodrome Forecast
Issued by NWS

Home | Current Version | Previous Version | Text Only | Print | Product List | Glossary On
Versions: 1 2 3 4 5 6 7 8 9 10 11 12 13 14
000
FTUS42 TJSJ 231700
TAFJPS
TAF
TJPS 231730Z 2318/2418 13012G20KT P6SM FEW030 FEW060
     FM232230 05005KT P6SM SKC
     FM241500 13012KT P6SM SCT030 SCT060=

USA.gov is the U.S. government's official web portal to all federal, state and local government web resources and services.